< < Back
Terminal Aerodrome Forecast


Current Version              Previous Versions:   1  2  3  4  5  6  7  8  9  

Terminal Aerodrome Forecast

283
FTUS42 KGSP 281617 AAA
TAFAVL
TAF AMD
KAVL 281617Z 2816/0112 19006KT P6SM OVC029
     FM281800 19007KT P6SM BKN035
     FM010000 14006KT P6SM BKN020
     FM010300 13004KT P6SM BKN010
     FM010800 13003KT P6SM -FZRA OVC013=

Latest METAR

488
SAUS70 KWBC 281900
MTRAVL
METAR KAVL 281854Z 16008KT 10SM BKN110 02/M08 A3056 RMK AO2 SLP364
T00221083


USA.gov is the U.S. government's official web portal to all federal, state and local government web resources and services.